createdAt,value
2023-02-14T00:01:08.369Z,6.63
2023-02-14T00:03:35.030Z,10.30
2023-02-14T00:06:09.178Z,8.17
2023-02-14T00:08:36.751Z,7.87
2023-02-14T00:11:05.404Z,5.70
2023-02-14T00:13:32.078Z,4.17
2023-02-14T00:15:59.141Z,6.33
2023-02-14T00:18:45.891Z,6.23
2023-02-14T00:21:12.644Z,3.37
2023-02-14T00:23:39.330Z,3.27
2023-02-14T00:26:06.039Z,7.90
2023-02-14T00:28:32.740Z,2.57
2023-02-14T00:31:01.965Z,2.60
2023-02-14T00:33:28.847Z,2.50
2023-02-14T00:35:55.412Z,10.33
2023-02-14T00:38:22.046Z,3.33
2023-02-14T00:40:48.676Z,2.90
2023-02-14T00:43:15.264Z,2.10
2023-02-14T00:45:41.946Z,3.13
2023-02-14T00:48:08.583Z,4.63
2023-02-14T00:50:35.376Z,2.57
2023-02-14T00:53:02.009Z,4.03
2023-02-14T00:55:28.639Z,2.90
2023-02-14T00:57:55.297Z,2.40
2023-02-14T01:00:22.252Z,3.07
2023-02-14T01:02:49.087Z,1.63
2023-02-14T01:05:15.808Z,2.97
2023-02-14T01:07:42.463Z,2.80
2023-02-14T01:10:09.403Z,1.60
2023-02-14T01:12:36.066Z,2.90
2023-02-14T01:15:02.626Z,3.00
2023-02-14T01:17:29.262Z,3.00
2023-02-14T01:19:55.957Z,3.60
2023-02-14T01:22:22.590Z,6.03
2023-02-14T01:24:49.297Z,3.20
2023-02-14T01:27:15.940Z,2.87
2023-02-14T01:29:42.615Z,2.83
2023-02-14T01:32:09.322Z,3.57
2023-02-14T01:34:36.043Z,2.67
2023-02-14T01:37:02.805Z,2.70
2023-02-14T01:39:29.407Z,4.03
2023-02-14T01:41:56.741Z,6.60
2023-02-14T01:44:26.159Z,2.00
2023-02-14T01:46:52.945Z,5.70
2023-02-14T01:49:28.627Z,7.13
2023-02-14T01:52:09.893Z,2.03
2023-02-14T01:54:39.309Z,3.77
2023-02-14T01:57:09.242Z,2.03
2023-02-14T01:59:40.619Z,1.90
2023-02-14T02:02:07.799Z,5.93
2023-02-14T02:04:41.444Z,1.40
2023-02-14T02:07:11.005Z,4.53
2023-02-14T02:09:57.506Z,4.27
2023-02-14T02:12:24.452Z,14.77
2023-02-14T02:14:53.459Z,3.47
2023-02-14T02:17:25.474Z,4.70
2023-02-14T02:20:13.959Z,5.70
2023-02-14T02:22:59.582Z,3.33
2023-02-14T02:25:35.124Z,2.30
2023-02-14T02:28:26.603Z,3.07
2023-02-14T02:31:22.324Z,4.70
2023-02-14T02:34:18.212Z,4.60
2023-02-14T02:37:03.505Z,8.33
2023-02-14T02:40:11.479Z,4.43
2023-02-14T02:43:04.722Z,6.93
2023-02-14T02:46:00.843Z,4.63
2023-02-14T02:48:38.106Z,4.70
2023-02-14T02:51:26.321Z,5.73
2023-02-14T02:54:03.246Z,4.63
2023-02-14T02:56:46.465Z,2.90
2023-02-14T02:59:20.628Z,4.40
2023-02-14T03:01:52.910Z,3.00
2023-02-14T03:04:39.772Z,4.37
2023-02-14T03:07:27.887Z,12.10
2023-02-14T03:09:57.710Z,3.80
2023-02-14T03:12:33.277Z,3.53
2023-02-14T03:15:18.140Z,4.07
2023-02-14T03:18:17.376Z,6.23
2023-02-14T03:20:52.019Z,4.80
2023-02-14T03:23:25.450Z,8.43
2023-02-14T03:26:02.729Z,9.77
2023-02-14T03:28:48.538Z,6.43
2023-02-14T03:31:26.872Z,6.60
2023-02-14T03:34:12.518Z,9.50
2023-02-14T03:36:57.204Z,8.73
2023-02-14T03:39:42.442Z,6.83
2023-02-14T03:42:16.554Z,14.17
2023-02-14T03:44:44.504Z,8.57
2023-02-14T03:47:14.024Z,6.63
2023-02-14T03:50:12.401Z,5.13
2023-02-14T03:52:39.440Z,3.67
2023-02-14T03:55:07.732Z,2.20
2023-02-14T03:57:48.078Z,2.40
2023-02-14T04:00:16.132Z,4.20
2023-02-14T04:02:48.457Z,3.80
2023-02-14T04:05:22.272Z,2.60
2023-02-14T04:07:52.091Z,12.93
2023-02-14T04:10:19.615Z,14.53
2023-02-14T04:12:46.951Z,8.13
2023-02-14T04:15:14.334Z,7.53
2023-02-14T04:17:59.941Z,16.30
2023-02-14T04:20:27.285Z,18.90
2023-02-14T04:22:54.545Z,17.17
2023-02-14T04:25:22.145Z,10.20
2023-02-14T04:27:49.101Z,7.37
2023-02-14T04:30:18.103Z,5.20
2023-02-14T04:32:45.503Z,3.07
2023-02-14T04:35:12.211Z,8.47
2023-02-14T04:37:39.491Z,7.70
2023-02-14T04:40:07.107Z,7.60
2023-02-14T04:42:34.070Z,6.27
2023-02-14T04:45:03.138Z,10.77
2023-02-14T04:47:30.826Z,16.00
2023-02-14T04:49:57.666Z,11.20
2023-02-14T04:52:24.524Z,12.73
2023-02-14T04:54:51.243Z,12.83
2023-02-14T04:57:17.959Z,12.67
2023-02-14T04:59:45.157Z,13.03
2023-02-14T05:02:11.923Z,15.50
2023-02-14T05:04:38.587Z,5.87
2023-02-14T05:07:05.346Z,14.63
2023-02-14T05:09:32.427Z,11.83
2023-02-14T05:11:59.022Z,12.93
2023-02-14T05:14:25.602Z,11.00
2023-02-14T05:16:52.318Z,12.23
2023-02-14T05:19:18.934Z,11.73
2023-02-14T05:21:45.573Z,32.27
2023-02-14T05:24:12.179Z,12.30
2023-02-14T05:26:38.988Z,11.10
2023-02-14T05:29:05.554Z,22.20
2023-02-14T05:31:32.295Z,22.10
2023-02-14T05:33:59.027Z,25.37
2023-02-14T05:36:25.808Z,17.97
2023-02-14T05:38:52.652Z,26.23
2023-02-14T05:41:19.328Z,38.37
2023-02-14T05:43:45.954Z,56.53
2023-02-14T05:46:12.687Z,18.37
2023-02-14T05:48:39.505Z,31.47
2023-02-14T05:51:08.189Z,53.27
2023-02-14T05:53:34.908Z,103.33
2023-02-14T05:56:01.807Z,66.10
2023-02-14T05:58:28.500Z,26.03
2023-02-14T06:00:57.771Z,49.67
2023-02-14T06:03:25.042Z,34.57
2023-02-14T06:05:52.362Z,29.40
2023-02-14T06:08:19.124Z,19.87
2023-02-14T06:10:46.458Z,18.57
2023-02-14T06:13:13.261Z,15.23
2023-02-14T06:15:39.911Z,24.97
2023-02-14T06:18:06.993Z,19.40
2023-02-14T06:20:33.873Z,20.20
2023-02-14T06:23:00.601Z,20.73
2023-02-14T06:25:27.676Z,45.40
2023-02-14T06:27:58.623Z,24.27
2023-02-14T06:30:26.182Z,34.77
2023-02-14T06:32:53.044Z,30.13
2023-02-14T06:35:19.909Z,28.57
2023-02-14T06:37:46.816Z,29.67
2023-02-14T06:40:13.817Z,54.20
2023-02-14T06:42:40.775Z,25.40
2023-02-14T06:45:08.007Z,39.73
2023-02-14T06:47:35.300Z,36.70
2023-02-14T06:50:04.356Z,43.23
2023-02-14T06:52:34.443Z,44.90
2023-02-14T06:55:01.219Z,43.07
2023-02-14T06:57:28.212Z,55.63
2023-02-14T06:59:54.904Z,25.87
2023-02-14T07:02:24.764Z,29.77
2023-02-14T07:04:51.801Z,28.30
2023-02-14T07:07:18.569Z,20.77
2023-02-14T07:09:45.322Z,27.17
2023-02-14T07:12:12.107Z,24.83
2023-02-14T07:14:38.901Z,29.87
2023-02-14T07:17:05.736Z,34.00
2023-02-14T07:19:32.422Z,28.63
2023-02-14T07:21:59.181Z,19.23
2023-02-14T07:24:25.873Z,20.03
2023-02-14T07:26:52.642Z,20.60
2023-02-14T07:29:19.430Z,20.20
2023-02-14T07:31:46.298Z,25.90
2023-02-14T07:34:13.205Z,23.10
2023-02-14T07:36:39.988Z,28.20
2023-02-14T07:39:06.773Z,19.50
2023-02-14T07:41:33.580Z,29.63
2023-02-14T07:44:00.385Z,34.27
2023-02-14T07:46:27.237Z,22.60
2023-02-14T07:48:54.071Z,21.20
2023-02-14T07:51:20.821Z,20.47
2023-02-14T07:53:47.583Z,31.37
2023-02-14T07:56:14.400Z,25.50
2023-02-14T07:58:41.199Z,63.03
2023-02-14T08:01:08.015Z,63.03
2023-02-14T08:03:34.879Z,83.37
2023-02-14T08:06:01.651Z,83.37
2023-02-14T08:08:30.992Z,74.10
2023-02-14T08:10:58.428Z,78.23
2023-02-14T08:13:25.492Z,34.20
2023-02-14T08:16:12.792Z,39.77
2023-02-14T08:18:41.605Z,40.13
2023-02-14T08:21:10.773Z,21.30
2023-02-14T08:23:38.566Z,29.10
2023-02-14T08:26:05.742Z,26.03
2023-02-14T08:28:33.390Z,51.70
2023-02-14T08:31:00.669Z,40.53
2023-02-14T08:33:27.738Z,62.27
2023-02-14T08:35:54.474Z,107.07
2023-02-14T08:38:21.325Z,34.40
2023-02-14T08:40:48.109Z,91.03
2023-02-14T08:43:15.067Z,159.67
2023-02-14T08:45:42.159Z,39.03
2023-02-14T08:48:10.637Z,22.87
2023-02-14T08:50:40.462Z,161.43
2023-02-14T08:53:09.692Z,157.27
2023-02-14T08:55:36.505Z,82.63
2023-02-14T08:58:04.205Z,30.23
2023-02-14T09:00:31.825Z,43.93
2023-02-14T09:02:58.796Z,81.13
2023-02-14T09:05:26.594Z,115.47
2023-02-14T09:07:56.011Z,96.30
2023-02-14T09:10:23.159Z,76.37
2023-02-14T09:12:50.736Z,35.73
2023-02-14T09:15:17.523Z,36.43
2023-02-14T09:17:44.339Z,186.33
2023-02-14T09:20:13.588Z,34.40
2023-02-14T09:22:40.547Z,43.47
2023-02-14T09:25:07.487Z,41.83
2023-02-14T09:27:34.312Z,38.73
2023-02-14T09:30:01.101Z,50.80
2023-02-14T09:32:29.432Z,54.03
2023-02-14T09:34:56.315Z,34.73
2023-02-14T09:37:41.685Z,41.33
2023-02-14T09:40:09.207Z,39.93
2023-02-14T09:42:38.935Z,30.53
2023-02-14T09:45:17.837Z,24.40
2023-02-14T09:48:15.209Z,32.97
2023-02-14T09:51:04.152Z,32.77
2023-02-14T09:53:37.104Z,34.93
2023-02-14T09:56:27.519Z,38.70
2023-02-14T09:59:06.918Z,40.63
2023-02-14T10:01:38.634Z,23.77
2023-02-14T10:04:27.583Z,23.50
2023-02-14T10:06:58.652Z,10.63
2023-02-14T10:09:25.390Z,21.83
2023-02-14T10:11:53.057Z,22.20
2023-02-14T10:14:23.927Z,20.63
2023-02-14T10:17:02.094Z,45.07
2023-02-14T10:19:33.075Z,27.60
2023-02-14T10:22:05.592Z,35.53
2023-02-14T10:25:02.630Z,35.40
2023-02-14T10:27:39.759Z,37.97
2023-02-14T10:30:21.403Z,30.23
2023-02-14T10:33:11.596Z,27.03
2023-02-14T10:35:52.027Z,22.93
2023-02-14T10:38:40.964Z,43.13
2023-02-14T10:41:34.160Z,27.13
2023-02-14T10:44:05.011Z,26.13
2023-02-14T10:46:34.858Z,24.30
2023-02-14T10:49:44.224Z,23.07
2023-02-14T10:52:35.208Z,18.73
2023-02-14T10:55:20.272Z,21.73
2023-02-14T10:57:57.188Z,19.47
2023-02-14T11:00:27.267Z,21.90
2023-02-14T11:02:57.664Z,25.87
2023-02-14T11:05:34.755Z,32.03
2023-02-14T11:08:02.084Z,18.43
2023-02-14T11:10:32.451Z,13.70
2023-02-14T11:12:59.149Z,21.50
2023-02-14T11:15:32.998Z,18.10
2023-02-14T11:18:18.737Z,23.87
2023-02-14T11:20:59.904Z,14.20
2023-02-14T11:23:26.699Z,22.47
2023-02-14T11:25:55.764Z,18.03
2023-02-14T11:28:23.026Z,25.03
2023-02-14T11:30:50.998Z,14.77
2023-02-14T11:33:34.220Z,25.67
2023-02-14T11:36:03.210Z,19.97
2023-02-14T11:38:34.165Z,14.63
2023-02-14T11:41:01.207Z,18.73
2023-02-14T11:43:39.414Z,15.17
2023-02-14T11:46:08.316Z,14.30
2023-02-14T11:48:38.856Z,11.67
2023-02-14T11:51:10.505Z,30.60
2023-02-14T11:54:01.399Z,18.60
2023-02-14T11:56:45.187Z,34.30
2023-02-14T11:59:12.807Z,26.30
2023-02-14T12:01:39.591Z,13.70
2023-02-14T12:04:16.401Z,10.87
2023-02-14T12:06:44.577Z,22.93
2023-02-14T12:09:31.735Z,19.10
2023-02-14T12:11:59.603Z,9.53
2023-02-14T12:14:34.070Z,15.47
2023-02-14T12:17:21.391Z,13.97
2023-02-14T12:20:17.260Z,10.93
2023-02-14T12:22:50.570Z,20.13
2023-02-14T12:25:22.899Z,13.00
2023-02-14T12:27:49.612Z,11.00
2023-02-14T12:30:19.459Z,15.33
2023-02-14T12:32:51.532Z,23.77
2023-02-14T12:35:27.854Z,18.67
2023-02-14T12:38:07.090Z,43.00
2023-02-14T12:40:49.674Z,13.20
2023-02-14T12:43:34.508Z,15.37
2023-02-14T12:46:14.914Z,15.60
2023-02-14T12:48:56.767Z,15.47
2023-02-14T12:51:57.399Z,11.70
2023-02-14T12:54:30.220Z,13.97
2023-02-14T12:57:18.879Z,19.00
2023-02-14T13:00:05.399Z,14.60
2023-02-14T13:02:35.136Z,9.53
2023-02-14T13:05:24.248Z,12.20
2023-02-14T13:08:20.695Z,15.23
2023-02-14T13:10:56.339Z,7.07
2023-02-14T13:13:27.608Z,8.70
2023-02-14T13:16:17.528Z,18.23
2023-02-14T13:19:04.137Z,31.03
2023-02-14T13:21:34.181Z,27.90
2023-02-14T13:24:16.630Z,16.67
2023-02-14T13:26:45.354Z,11.50
2023-02-14T13:29:24.124Z,13.23
2023-02-14T13:31:52.400Z,25.03
2023-02-14T13:34:26.848Z,20.93
2023-02-14T13:36:55.479Z,15.87
2023-02-14T13:39:44.175Z,7.17
2023-02-14T13:42:11.670Z,10.50
2023-02-14T13:44:47.882Z,11.33
2023-02-14T13:47:22.840Z,17.93
2023-02-14T13:50:01.128Z,7.33
2023-02-14T13:52:45.014Z,12.53
2023-02-14T13:55:27.295Z,9.90
2023-02-14T13:58:24.312Z,6.20
2023-02-14T14:00:52.882Z,17.87
2023-02-14T14:03:28.941Z,8.23
2023-02-14T14:05:58.878Z,11.70
2023-02-14T14:08:28.759Z,8.80
2023-02-14T14:10:59.684Z,18.43
2023-02-14T14:13:41.734Z,12.60
2023-02-14T14:16:21.626Z,12.43
2023-02-14T14:18:49.472Z,8.43
2023-02-14T14:21:39.230Z,10.17
2023-02-14T14:24:17.880Z,8.03
2023-02-14T14:27:00.738Z,8.03
2023-02-14T14:29:34.823Z,13.70
2023-02-14T14:32:15.298Z,8.77
2023-02-14T14:34:50.503Z,6.90
2023-02-14T14:37:20.203Z,9.93
2023-02-14T14:39:52.070Z,8.00
2023-02-14T14:42:19.735Z,5.33
2023-02-14T14:45:05.716Z,4.57
2023-02-14T14:47:41.062Z,9.67
2023-02-14T14:50:13.749Z,15.07
2023-02-14T14:52:43.959Z,25.43
2023-02-14T14:55:28.030Z,7.53
2023-02-14T14:58:00.584Z,4.07
2023-02-14T15:00:29.760Z,5.77
2023-02-14T15:02:58.909Z,4.20
2023-02-14T15:05:30.355Z,2.13
2023-02-14T15:07:57.971Z,10.40
2023-02-14T15:10:27.967Z,6.20
2023-02-14T15:13:16.564Z,21.57
2023-02-14T15:15:48.814Z,5.93
2023-02-14T15:18:15.677Z,3.60
2023-02-14T15:20:42.761Z,5.83
2023-02-14T15:23:21.018Z,2.77
2023-02-14T15:25:49.335Z,4.70
2023-02-14T15:28:30.777Z,4.27
2023-02-14T15:31:04.567Z,3.83
2023-02-14T15:33:32.654Z,2.57
2023-02-14T15:36:03.786Z,3.90
2023-02-14T15:38:31.065Z,3.40
2023-02-14T15:40:58.953Z,3.83
2023-02-14T15:43:32.136Z,5.07
2023-02-14T15:46:27.379Z,3.80
2023-02-14T15:48:56.197Z,4.30
2023-02-14T15:51:27.122Z,3.83
2023-02-14T15:53:58.929Z,2.33
2023-02-14T15:56:28.174Z,1.50
2023-02-14T15:59:07.787Z,2.13
2023-02-14T16:01:36.085Z,1.13
2023-02-14T16:04:04.688Z,1.30
2023-02-14T16:06:35.942Z,2.27
2023-02-14T16:09:04.277Z,1.87
2023-02-14T16:11:36.267Z,1.30
2023-02-14T16:14:30.462Z,10.13
2023-02-14T16:17:03.126Z,1.20
2023-02-14T16:19:38.773Z,1.27
2023-02-14T16:22:07.207Z,2.00
2023-02-14T16:24:34.426Z,1.30
2023-02-14T16:27:06.871Z,1.90
2023-02-14T16:29:35.699Z,1.17
2023-02-14T16:32:17.053Z,2.73
2023-02-14T16:34:45.625Z,1.60
2023-02-14T16:37:23.418Z,3.07
2023-02-14T16:39:51.712Z,6.70
2023-02-14T16:42:18.961Z,4.47
2023-02-14T16:44:46.624Z,0.57
2023-02-14T16:47:14.927Z,3.13
2023-02-14T16:49:42.150Z,1.53
2023-02-14T16:52:18.004Z,4.03
2023-02-14T16:54:44.902Z,11.30
2023-02-14T16:57:28.234Z,1.60
2023-02-14T16:59:56.592Z,1.73
2023-02-14T17:02:26.391Z,1.43
2023-02-14T17:04:53.181Z,6.27
2023-02-14T17:07:20.315Z,2.30
2023-02-14T17:09:52.124Z,3.13
2023-02-14T17:12:22.756Z,1.33
2023-02-14T17:14:52.118Z,2.20
2023-02-14T17:17:19.085Z,1.33
2023-02-14T17:19:45.915Z,3.27
2023-02-14T17:22:13.746Z,1.43
2023-02-14T17:24:41.270Z,1.43
2023-02-14T17:27:08.798Z,1.70
2023-02-14T17:29:35.903Z,3.00
2023-02-14T17:32:03.197Z,0.80
2023-02-14T17:34:33.852Z,1.57
2023-02-14T17:37:00.616Z,0.67
2023-02-14T17:39:27.690Z,1.30
2023-02-14T17:41:56.693Z,3.23
2023-02-14T17:44:23.477Z,3.93
2023-02-14T17:46:50.409Z,4.80
2023-02-14T17:49:17.181Z,1.30
2023-02-14T17:51:43.858Z,5.87
2023-02-14T17:54:10.603Z,1.70
2023-02-14T17:56:37.336Z,1.50
2023-02-14T17:59:04.037Z,1.17
2023-02-14T18:01:34.654Z,4.80
2023-02-14T18:04:01.417Z,2.43
2023-02-14T18:06:28.280Z,3.10
2023-02-14T18:08:58.047Z,6.33
2023-02-14T18:11:27.520Z,3.70
2023-02-14T18:13:55.409Z,5.70
2023-02-14T18:16:22.492Z,3.30
2023-02-14T18:18:49.329Z,5.40
2023-02-14T18:21:20.363Z,2.67
2023-02-14T18:23:47.293Z,4.50
2023-02-14T18:26:15.673Z,2.60
2023-02-14T18:28:42.427Z,1.63
2023-02-14T18:31:11.326Z,3.60
2023-02-14T18:33:38.364Z,4.57
2023-02-14T18:36:07.296Z,1.83
2023-02-14T18:38:34.926Z,4.83
2023-02-14T18:41:09.139Z,3.77
2023-02-14T18:43:36.587Z,4.80
2023-02-14T18:46:05.401Z,4.90
2023-02-14T18:48:32.565Z,1.63
2023-02-14T18:51:13.889Z,5.17
2023-02-14T18:53:41.423Z,1.93
2023-02-14T18:56:16.502Z,1.53
2023-02-14T18:58:47.252Z,2.97
2023-02-14T19:01:16.661Z,1.60
2023-02-14T19:03:43.568Z,1.80
2023-02-14T19:06:11.727Z,1.97
2023-02-14T19:08:39.842Z,5.80
2023-02-14T19:11:11.771Z,7.33
2023-02-14T19:13:38.545Z,7.20
2023-02-14T19:16:12.627Z,8.00
2023-02-14T19:18:39.899Z,12.00
2023-02-14T19:21:18.399Z,5.20
2023-02-14T19:23:45.141Z,7.60
2023-02-14T19:26:17.463Z,9.50
2023-02-14T19:28:44.996Z,4.30
2023-02-14T19:31:12.096Z,5.57
2023-02-14T19:33:48.086Z,4.00
2023-02-14T19:36:18.480Z,3.77
2023-02-14T19:38:49.156Z,5.70
2023-02-14T19:41:25.088Z,5.73
2023-02-14T19:43:52.665Z,4.70
2023-02-14T19:46:20.361Z,8.17
2023-02-14T19:48:47.776Z,2.30
2023-02-14T19:51:29.484Z,3.23
2023-02-14T19:53:57.430Z,2.60
2023-02-14T19:56:26.549Z,10.73
2023-02-14T19:58:53.577Z,3.10
2023-02-14T20:01:29.570Z,2.43
2023-02-14T20:03:56.445Z,3.80
2023-02-14T20:06:24.554Z,13.00
2023-02-14T20:08:51.703Z,3.87
2023-02-14T20:11:40.537Z,2.17
2023-02-14T20:14:08.450Z,11.47
2023-02-14T20:16:36.766Z,5.40
2023-02-14T20:19:06.440Z,6.17
2023-02-14T20:21:33.907Z,4.07
2023-02-14T20:24:02.576Z,3.20
2023-02-14T20:26:30.670Z,3.10
2023-02-14T20:29:03.898Z,3.63
2023-02-14T20:31:32.853Z,2.53
2023-02-14T20:33:59.851Z,4.60
2023-02-14T20:36:28.224Z,4.90
2023-02-14T20:39:00.537Z,4.73
2023-02-14T20:41:27.983Z,8.50
2023-02-14T20:43:55.557Z,4.47
2023-02-14T20:46:22.937Z,4.40
2023-02-14T20:48:51.069Z,6.07
2023-02-14T20:51:19.550Z,9.00
2023-02-14T20:53:46.422Z,6.43
2023-02-14T20:56:13.933Z,3.97
2023-02-14T20:58:41.030Z,11.13
2023-02-14T21:01:15.975Z,11.30
2023-02-14T21:03:46.673Z,5.03
2023-02-14T21:06:14.972Z,3.03
2023-02-14T21:08:42.757Z,3.30
2023-02-14T21:11:11.625Z,3.10
2023-02-14T21:13:38.812Z,2.83
2023-02-14T21:16:08.025Z,1.93
2023-02-14T21:18:37.697Z,6.73
2023-02-14T21:21:11.587Z,2.33
2023-02-14T21:23:38.234Z,6.83
2023-02-14T21:26:06.096Z,5.50
2023-02-14T21:28:32.954Z,1.60
2023-02-14T21:31:08.671Z,7.30
2023-02-14T21:33:36.148Z,1.93
2023-02-14T21:36:05.748Z,1.90
2023-02-14T21:38:32.408Z,2.87
2023-02-14T21:41:10.472Z,2.90
2023-02-14T21:43:39.346Z,2.13
2023-02-14T21:46:07.819Z,2.47
2023-02-14T21:48:53.163Z,4.10
2023-02-14T21:51:21.343Z,2.97
2023-02-14T21:53:48.503Z,3.17
2023-02-14T21:56:19.649Z,1.50
2023-02-14T21:58:51.819Z,4.77
2023-02-14T22:01:24.352Z,3.23
2023-02-14T22:03:53.493Z,3.60
2023-02-14T22:06:20.253Z,1.90
2023-02-14T22:08:47.076Z,2.73
2023-02-14T22:11:15.419Z,2.97
2023-02-14T22:13:42.644Z,2.63
2023-02-14T22:16:14.658Z,3.20
2023-02-14T22:18:41.813Z,2.40
2023-02-14T22:21:10.962Z,2.10
2023-02-14T22:23:38.256Z,4.87
2023-02-14T22:26:25.759Z,4.00
2023-02-14T22:28:55.911Z,6.57
2023-02-14T22:31:23.260Z,6.83
2023-02-14T22:33:50.278Z,7.60
2023-02-14T22:36:16.906Z,5.70
2023-02-14T22:38:43.918Z,11.93
2023-02-14T22:41:13.088Z,2.30
2023-02-14T22:43:40.520Z,2.80
2023-02-14T22:46:13.434Z,2.30
2023-02-14T22:48:40.724Z,2.43
2023-02-14T22:51:23.694Z,2.17
2023-02-14T22:53:51.974Z,3.97
2023-02-14T22:56:20.709Z,5.83
2023-02-14T22:58:47.611Z,3.70
2023-02-14T23:01:19.370Z,4.97
2023-02-14T23:03:48.122Z,2.67
2023-02-14T23:06:15.703Z,2.40
2023-02-14T23:08:43.878Z,2.67
2023-02-14T23:11:15.169Z,2.23
2023-02-14T23:14:02.093Z,3.57
2023-02-14T23:16:47.921Z,3.03
2023-02-14T23:19:35.539Z,4.47
2023-02-14T23:22:23.523Z,3.83
2023-02-14T23:24:51.736Z,3.13
2023-02-14T23:27:20.677Z,6.00
2023-02-14T23:29:47.283Z,5.03
2023-02-14T23:32:14.169Z,2.43
2023-02-14T23:34:41.806Z,4.47
2023-02-14T23:37:09.246Z,4.07
2023-02-14T23:39:36.857Z,15.60
2023-02-14T23:42:12.200Z,8.47
2023-02-14T23:44:38.790Z,4.67
2023-02-14T23:47:08.096Z,3.00
2023-02-14T23:49:36.436Z,5.13
2023-02-14T23:52:04.088Z,5.13
2023-02-14T23:54:30.692Z,8.70
2023-02-14T23:56:59.892Z,5.90
2023-02-14T23:59:26.584Z,4.60
